createdAt,value
2022-12-20T00:02:26.361Z,22.50
2022-12-20T00:05:28.254Z,22.60
2022-12-20T00:08:29.808Z,22.60
2022-12-20T00:11:31.378Z,22.70
2022-12-20T00:14:33.028Z,22.70
2022-12-20T00:17:34.586Z,25.30
2022-12-20T00:20:36.239Z,21.40
2022-12-20T00:23:38.061Z,21.60
2022-12-20T00:26:39.711Z,23.60
2022-12-20T00:29:41.303Z,21.60
2022-12-20T00:32:44.047Z,22.40
2022-12-20T00:35:45.667Z,23.80
2022-12-20T00:38:48.156Z,22.50
2022-12-20T00:41:50.476Z,22.10
2022-12-20T00:44:52.519Z,22.40
2022-12-20T00:47:54.093Z,21.40
2022-12-20T00:51:03.283Z,19.30
2022-12-20T00:54:04.847Z,21.90
2022-12-20T00:57:06.599Z,21.00
2022-12-20T01:00:08.781Z,21.00
2022-12-20T01:03:10.627Z,21.90
2022-12-20T01:06:12.500Z,21.90
2022-12-20T01:09:14.067Z,22.00
2022-12-20T01:12:15.716Z,22.10
2022-12-20T01:15:36.114Z,19.90
2022-12-20T01:18:37.773Z,21.70
2022-12-20T01:21:44.990Z,21.00
2022-12-20T01:24:46.726Z,20.90
2022-12-20T01:27:48.388Z,21.20
2022-12-20T01:30:50.018Z,22.50
2022-12-20T01:33:52.526Z,20.60
2022-12-20T01:36:54.290Z,21.30
2022-12-20T01:39:55.845Z,20.00
2022-12-20T01:42:57.503Z,19.40
2022-12-20T01:45:59.347Z,19.10
2022-12-20T01:49:01.033Z,20.60
2022-12-20T01:52:05.077Z,21.00
2022-12-20T01:55:12.458Z,20.10
2022-12-20T01:58:16.549Z,20.00
2022-12-20T02:01:18.202Z,19.30
2022-12-20T02:04:21.005Z,21.40
2022-12-20T02:07:25.728Z,19.80
2022-12-20T02:10:32.754Z,21.60
2022-12-20T02:13:43.238Z,19.40
2022-12-20T02:16:57.702Z,21.40
2022-12-20T02:20:14.725Z,19.50
2022-12-20T02:23:26.251Z,20.10
2022-12-20T02:26:46.467Z,20.30
2022-12-20T02:29:54.179Z,21.20
2022-12-20T02:32:55.761Z,20.00
2022-12-20T02:35:58.183Z,21.70
2022-12-20T02:39:00.047Z,18.80
2022-12-20T02:42:06.525Z,22.00
2022-12-20T02:45:15.551Z,19.60
2022-12-20T02:48:18.306Z,20.00
2022-12-20T02:51:22.860Z,19.30
2022-12-20T02:54:24.824Z,19.70
2022-12-20T02:57:39.184Z,20.90
2022-12-20T03:00:42.829Z,18.80
2022-12-20T03:03:44.731Z,17.30
2022-12-20T03:06:56.142Z,20.00
2022-12-20T03:09:57.817Z,22.10
2022-12-20T03:12:59.464Z,21.50
2022-12-20T03:16:04.103Z,19.30
2022-12-20T03:19:05.751Z,18.90
2022-12-20T03:22:07.529Z,18.80
2022-12-20T03:25:09.386Z,20.50
2022-12-20T03:28:11.142Z,20.50
2022-12-20T03:31:12.887Z,18.70
2022-12-20T03:34:21.623Z,19.40
2022-12-20T03:37:23.696Z,19.20
2022-12-20T03:40:25.661Z,20.20
2022-12-20T03:43:27.270Z,17.60
2022-12-20T03:46:28.930Z,18.80
2022-12-20T03:49:31.264Z,20.50
2022-12-20T03:52:33.221Z,20.50
2022-12-20T03:55:34.885Z,20.00
2022-12-20T03:58:37.060Z,19.40
2022-12-20T04:01:39.197Z,19.00
2022-12-20T04:04:41.602Z,20.00
2022-12-20T04:07:43.260Z,20.90
2022-12-20T04:11:03.677Z,22.50
2022-12-20T04:14:08.290Z,20.30
2022-12-20T04:17:10.324Z,20.70
2022-12-20T04:20:20.024Z,18.20
2022-12-20T04:23:31.087Z,19.20
2022-12-20T04:26:33.668Z,18.10
2022-12-20T04:29:36.454Z,19.20
2022-12-20T04:32:38.829Z,19.60
2022-12-20T04:35:40.492Z,20.20
2022-12-20T04:38:42.435Z,17.70
2022-12-20T04:41:44.322Z,18.60
2022-12-20T04:44:47.410Z,19.00
2022-12-20T04:47:50.819Z,18.90
2022-12-20T04:50:56.936Z,18.90
2022-12-20T04:53:59.092Z,19.50
2022-12-20T04:57:14.641Z,18.90
2022-12-20T05:00:17.303Z,18.70
2022-12-20T05:03:22.823Z,19.00
2022-12-20T05:06:24.525Z,18.80
2022-12-20T05:09:26.389Z,17.90
2022-12-20T05:12:29.229Z,19.80
2022-12-20T05:15:32.860Z,17.90
2022-12-20T05:18:35.069Z,20.40
2022-12-20T05:22:00.385Z,19.50
2022-12-20T05:25:21.022Z,19.70
2022-12-20T05:28:24.476Z,18.90
2022-12-20T05:31:26.695Z,21.40
2022-12-20T05:34:29.003Z,17.10
2022-12-20T05:37:30.787Z,20.50
2022-12-20T05:40:42.590Z,19.40
2022-12-20T05:43:45.588Z,19.60
2022-12-20T05:46:48.108Z,20.00
2022-12-20T05:49:53.606Z,19.90
2022-12-20T05:52:55.431Z,19.90
2022-12-20T05:55:57.227Z,19.40
2022-12-20T05:59:04.856Z,21.00
2022-12-20T06:02:06.879Z,18.80
2022-12-20T06:05:09.717Z,18.40
2022-12-20T06:08:12.060Z,22.20
2022-12-20T06:11:13.949Z,19.80
2022-12-20T06:14:24.091Z,21.80
2022-12-20T06:17:27.483Z,18.40
2022-12-20T06:20:29.822Z,22.70
2022-12-20T06:23:34.362Z,31.10
2022-12-20T06:26:42.620Z,27.40
2022-12-20T06:29:51.887Z,21.00
2022-12-20T06:32:56.575Z,18.50
2022-12-20T06:35:58.402Z,27.00
2022-12-20T06:39:03.389Z,21.20
2022-12-20T06:42:10.452Z,21.90
2022-12-20T06:45:13.984Z,20.90
2022-12-20T06:48:25.240Z,21.40
2022-12-20T06:51:26.875Z,22.70
2022-12-20T06:54:29.385Z,22.90
2022-12-20T06:57:31.029Z,21.90
2022-12-20T07:00:32.915Z,22.20
2022-12-20T07:03:34.632Z,19.20
2022-12-20T07:06:36.833Z,22.10
2022-12-20T07:09:41.397Z,21.00
2022-12-20T07:12:47.666Z,22.50
2022-12-20T07:15:50.213Z,22.60
2022-12-20T07:18:52.740Z,22.80
2022-12-20T07:21:54.712Z,24.50
2022-12-20T07:24:56.342Z,22.80
2022-12-20T07:27:58.623Z,24.70
2022-12-20T07:31:01.380Z,24.30
2022-12-20T07:34:03.050Z,22.20
2022-12-20T07:37:05.003Z,23.50
2022-12-20T07:40:06.864Z,21.70
2022-12-20T07:43:09.138Z,21.80
2022-12-20T07:46:12.879Z,21.50
2022-12-20T07:49:14.552Z,22.00
2022-12-20T07:52:17.812Z,22.10
2022-12-20T07:55:19.879Z,23.30
2022-12-20T07:58:22.256Z,26.20
2022-12-20T08:01:24.338Z,24.20
2022-12-20T08:04:27.217Z,22.90
2022-12-20T08:07:29.972Z,22.30
2022-12-20T08:10:32.101Z,22.30
2022-12-20T08:13:34.143Z,23.40
2022-12-20T08:16:35.947Z,22.50
2022-12-20T08:19:38.845Z,22.90
2022-12-20T08:22:40.425Z,25.30
2022-12-20T08:25:42.421Z,25.70
2022-12-20T08:28:44.273Z,25.40
2022-12-20T08:31:50.092Z,25.70
2022-12-20T08:34:52.821Z,24.80
2022-12-20T08:37:54.306Z,23.90
2022-12-20T08:40:55.848Z,24.90
2022-12-20T08:43:57.496Z,25.90
2022-12-20T08:46:59.058Z,27.60
2022-12-20T08:50:01.269Z,25.10
2022-12-20T08:53:02.883Z,27.50
2022-12-20T08:56:04.621Z,27.30
2022-12-20T08:59:06.241Z,26.90
2022-12-20T09:02:08.078Z,27.60
2022-12-20T09:05:10.210Z,25.70
2022-12-20T09:11:51.861Z,26.20
2022-12-20T09:14:53.363Z,26.40
2022-12-20T09:17:55.676Z,26.00
2022-12-20T09:21:04.121Z,26.30
2022-12-20T09:24:06.431Z,24.10
2022-12-20T09:27:08.040Z,24.60
2022-12-20T09:30:09.910Z,25.20
2022-12-20T09:33:11.662Z,25.20
2022-12-20T09:36:17.735Z,25.30
2022-12-20T09:39:19.315Z,25.30
2022-12-20T09:42:22.894Z,25.90
2022-12-20T09:45:29.660Z,23.80
2022-12-20T09:48:35.626Z,23.80
2022-12-20T09:51:43.160Z,23.80
2022-12-20T09:54:52.504Z,25.20
2022-12-20T09:57:54.125Z,23.30
2022-12-20T10:00:55.881Z,22.70
2022-12-20T10:03:59.115Z,23.50
2022-12-20T10:07:07.086Z,24.80
2022-12-20T10:10:08.747Z,23.50
2022-12-20T10:13:16.494Z,24.00
2022-12-20T10:16:21.018Z,22.90
2022-12-20T10:22:26.929Z,24.40
2022-12-20T10:25:33.020Z,22.90
2022-12-20T10:28:35.561Z,22.50
2022-12-20T10:31:37.294Z,24.80
2022-12-20T10:34:43.537Z,24.60
2022-12-20T10:38:07.148Z,24.50
2022-12-20T10:41:23.420Z,24.40
2022-12-20T10:44:26.913Z,24.20
2022-12-20T10:47:54.633Z,25.50
2022-12-20T10:50:58.855Z,25.60
2022-12-20T10:54:01.750Z,25.70
2022-12-20T10:57:14.989Z,24.50
2022-12-20T11:00:28.367Z,26.30
2022-12-20T11:03:31.046Z,29.30
2022-12-20T11:06:38.626Z,26.60
2022-12-20T11:09:52.180Z,27.70
2022-12-20T11:12:58.289Z,27.50
2022-12-20T11:16:01.923Z,28.30
2022-12-20T11:19:22.960Z,27.70
2022-12-20T11:22:42.775Z,27.80
2022-12-20T11:25:44.380Z,27.20
2022-12-20T11:29:04.859Z,26.60
2022-12-20T11:32:25.211Z,29.60
2022-12-20T11:35:39.357Z,28.30
2022-12-20T11:38:43.353Z,27.20
2022-12-20T11:45:06.960Z,25.20
2022-12-20T11:48:28.932Z,29.70
2022-12-20T11:51:39.782Z,30.00
2022-12-20T11:58:17.925Z,28.00
2022-12-20T12:01:22.621Z,27.90
2022-12-20T12:04:30.274Z,27.70
2022-12-20T12:07:32.856Z,30.10
2022-12-20T12:10:36.337Z,26.60
2022-12-20T12:13:40.239Z,26.10
2022-12-20T12:16:44.961Z,27.00
2022-12-20T12:19:50.014Z,30.00
2022-12-20T12:22:54.654Z,25.70
2022-12-20T12:25:57.225Z,26.50
2022-12-20T12:29:00.090Z,26.20
2022-12-20T12:32:01.773Z,26.00
2022-12-20T12:35:17.687Z,28.70
2022-12-20T12:38:38.272Z,27.40
2022-12-20T12:41:49.249Z,27.50
2022-12-20T12:44:56.500Z,29.80
2022-12-20T12:48:01.712Z,24.20
2022-12-20T12:51:04.071Z,23.70
2022-12-20T12:54:18.422Z,24.70
2022-12-20T12:57:20.081Z,25.70
2022-12-20T13:00:44.814Z,25.10
2022-12-20T13:04:06.310Z,27.70
2022-12-20T13:07:40.738Z,29.00
2022-12-20T13:10:42.289Z,27.70
2022-12-20T13:13:43.962Z,26.30
2022-12-20T13:17:11.501Z,27.80
2022-12-20T13:20:17.553Z,25.60
2022-12-20T13:23:23.731Z,24.40
2022-12-20T13:26:55.001Z,25.50
2022-12-20T13:30:05.676Z,25.30
2022-12-20T13:36:12.038Z,25.20
2022-12-20T13:39:22.629Z,24.80
2022-12-20T13:42:34.427Z,24.60
2022-12-20T13:45:36.159Z,25.10
2022-12-20T13:48:46.724Z,24.60
2022-12-20T13:51:48.314Z,23.00
2022-12-20T13:54:52.446Z,23.70
2022-12-20T13:57:54.196Z,23.30
2022-12-20T14:01:04.276Z,22.70
2022-12-20T14:04:07.453Z,22.90
2022-12-20T14:07:11.667Z,20.90
2022-12-20T14:10:33.703Z,20.90
2022-12-20T14:13:35.180Z,20.90
2022-12-20T14:16:38.966Z,19.60
2022-12-20T14:19:40.638Z,18.40
2022-12-20T14:22:47.682Z,20.40
2022-12-20T14:25:49.131Z,18.60
2022-12-20T14:28:51.749Z,21.20
2022-12-20T14:31:53.835Z,19.30
2022-12-20T14:34:55.660Z,20.30
2022-12-20T14:37:59.615Z,18.50
2022-12-20T14:41:01.502Z,19.30
2022-12-20T14:44:05.379Z,18.60
2022-12-20T14:47:16.098Z,20.40
2022-12-20T14:50:23.201Z,19.00
2022-12-20T14:53:29.008Z,21.40
2022-12-20T14:56:33.556Z,20.00
2022-12-20T14:59:35.183Z,19.50
2022-12-20T15:02:40.938Z,18.10
2022-12-20T15:05:45.602Z,16.90
2022-12-20T15:08:47.226Z,20.40
2022-12-20T15:11:48.970Z,20.30
2022-12-20T15:14:50.516Z,21.50
2022-12-20T15:17:52.307Z,20.80
2022-12-20T15:21:05.093Z,22.10
2022-12-20T15:24:10.888Z,22.60
2022-12-20T15:27:15.696Z,22.70
2022-12-20T15:30:18.321Z,21.80
2022-12-20T15:33:25.392Z,20.20
2022-12-20T15:36:28.281Z,21.30
2022-12-20T15:39:30.290Z,23.50
2022-12-20T15:42:32.281Z,23.10
2022-12-20T15:45:33.898Z,25.30
2022-12-20T15:48:35.458Z,24.80
2022-12-20T15:51:40.531Z,25.30
2022-12-20T15:54:42.042Z,24.90
2022-12-20T15:57:43.595Z,24.80
2022-12-20T16:00:45.279Z,26.90
2022-12-20T16:03:46.892Z,26.90
2022-12-20T16:06:50.445Z,29.40
2022-12-20T16:09:52.046Z,27.40
2022-12-20T16:12:55.399Z,29.10
2022-12-20T16:15:56.993Z,27.60
2022-12-20T16:18:58.613Z,27.40
2022-12-20T16:22:00.184Z,24.80
2022-12-20T16:25:01.798Z,28.70
2022-12-20T16:28:03.611Z,25.30
2022-12-20T16:31:10.893Z,28.90
2022-12-20T16:34:13.761Z,26.60
2022-12-20T16:37:15.503Z,27.90
2022-12-20T16:40:17.268Z,25.00
2022-12-20T16:43:18.923Z,26.90
2022-12-20T16:46:21.677Z,26.70
2022-12-20T16:49:23.431Z,24.70
2022-12-20T16:52:25.034Z,21.90
2022-12-20T16:55:27.950Z,20.40
2022-12-20T16:58:59.919Z,19.70
2022-12-20T17:01:53.452Z,18.60
2022-12-20T17:04:55.487Z,17.30
2022-12-20T17:07:57.197Z,18.90
2022-12-20T17:10:59.063Z,16.80
2022-12-20T17:14:00.774Z,18.40
2022-12-20T17:17:02.408Z,16.80
2022-12-20T17:20:04.057Z,16.30
2022-12-20T17:23:10.895Z,19.20
2022-12-20T17:26:14.968Z,19.50
2022-12-20T17:29:17.924Z,17.60
2022-12-20T17:32:21.165Z,18.10
2022-12-20T17:35:27.996Z,16.90
2022-12-20T17:38:29.565Z,16.90
2022-12-20T17:41:35.311Z,19.00
2022-12-20T17:44:36.873Z,20.20
2022-12-20T17:47:38.370Z,17.60
2022-12-20T17:50:39.820Z,19.70
2022-12-20T17:53:41.410Z,20.20
2022-12-20T17:56:43.023Z,18.70
2022-12-20T17:59:44.654Z,20.20
2022-12-20T18:02:46.431Z,20.90
2022-12-20T18:05:48.132Z,22.40
2022-12-20T18:08:53.936Z,32.00
2022-12-20T18:11:55.614Z,36.80
2022-12-20T18:14:57.254Z,34.20
2022-12-20T18:17:58.939Z,30.40
2022-12-20T18:21:04.880Z,26.40
2022-12-20T18:24:06.743Z,26.60
2022-12-20T18:27:08.403Z,22.80
2022-12-20T18:30:12.201Z,20.00
2022-12-20T18:33:13.818Z,21.00
2022-12-20T18:36:17.275Z,20.80
2022-12-20T18:39:19.644Z,25.10
2022-12-20T18:42:21.314Z,21.20
2022-12-20T18:45:22.890Z,21.70
2022-12-20T18:48:25.245Z,20.30
2022-12-20T18:51:31.014Z,24.00
2022-12-20T18:54:32.558Z,20.20
2022-12-20T18:57:34.113Z,23.80
2022-12-20T19:00:35.678Z,21.70
2022-12-20T19:03:37.580Z,25.60
2022-12-20T19:06:39.545Z,26.50
2022-12-20T19:09:41.087Z,24.40
2022-12-20T19:12:42.676Z,23.30
2022-12-20T19:15:45.400Z,25.10
2022-12-20T19:18:47.497Z,26.90
2022-12-20T19:21:49.137Z,26.50
2022-12-20T19:24:52.120Z,25.90
2022-12-20T19:27:53.661Z,28.10
2022-12-20T19:30:55.847Z,26.40
2022-12-20T19:34:01.919Z,30.30
2022-12-20T19:37:03.428Z,27.70
2022-12-20T19:40:05.436Z,30.50
2022-12-20T19:43:07.147Z,31.90
2022-12-20T19:46:09.826Z,30.20
2022-12-20T19:49:11.747Z,30.70
2022-12-20T19:52:13.377Z,29.20
2022-12-20T19:55:14.987Z,29.00
2022-12-20T19:58:16.665Z,26.70
2022-12-20T20:01:19.265Z,28.30
2022-12-20T20:04:20.967Z,27.10
2022-12-20T20:07:22.468Z,29.10
2022-12-20T20:10:24.023Z,28.50
2022-12-20T20:13:26.565Z,28.60
2022-12-20T20:16:28.332Z,30.30
2022-12-20T20:19:29.875Z,28.10
2022-12-20T20:22:31.471Z,28.40
2022-12-20T20:25:35.448Z,26.70
2022-12-20T20:28:44.574Z,28.80
2022-12-20T20:31:47.169Z,28.90
2022-12-20T20:34:48.836Z,31.20
2022-12-20T20:37:50.475Z,32.20
2022-12-20T20:40:52.331Z,31.90
2022-12-20T20:43:53.934Z,30.60
2022-12-20T20:46:55.735Z,28.50
2022-12-20T20:49:57.334Z,29.80
2022-12-20T20:52:59.840Z,29.60
2022-12-20T20:56:05.086Z,29.10
2022-12-20T20:59:10.555Z,30.80
2022-12-20T21:02:16.998Z,32.10
2022-12-20T21:08:40.255Z,34.90
2022-12-20T21:11:42.280Z,30.70
2022-12-20T21:15:20.546Z,33.40
2022-12-20T21:18:05.621Z,32.70
2022-12-20T21:21:08.511Z,34.20
2022-12-20T21:24:10.171Z,32.70
2022-12-20T21:27:11.652Z,33.30
2022-12-20T21:30:13.384Z,31.70
2022-12-20T21:33:14.901Z,30.20
2022-12-20T21:36:18.495Z,34.10
2022-12-20T21:39:20.005Z,30.90
2022-12-20T21:42:21.673Z,28.80
2022-12-20T21:45:23.119Z,29.90
2022-12-20T21:48:25.508Z,29.20
2022-12-20T21:51:28.385Z,27.20
2022-12-20T21:54:30.354Z,26.20
2022-12-20T21:57:32.187Z,27.10
2022-12-20T22:00:33.846Z,27.20
2022-12-20T22:03:35.823Z,25.90
2022-12-20T22:06:37.812Z,27.70
2022-12-20T22:09:39.434Z,27.40
2022-12-20T22:12:41.018Z,28.40
2022-12-20T22:15:42.692Z,31.50
2022-12-20T22:18:45.231Z,30.10
2022-12-20T22:21:49.810Z,27.80
2022-12-20T22:24:55.774Z,26.00
2022-12-20T22:27:57.353Z,32.20
2022-12-20T22:30:59.002Z,27.20
2022-12-20T22:34:01.060Z,31.50
2022-12-20T22:37:02.670Z,24.70
2022-12-20T22:40:05.283Z,25.10
2022-12-20T22:43:06.823Z,27.20
2022-12-20T22:46:28.691Z,22.10
2022-12-20T22:49:30.292Z,24.00
2022-12-20T22:52:34.679Z,23.60
2022-12-20T22:55:36.140Z,25.80
2022-12-20T22:58:38.741Z,26.30
2022-12-20T23:01:40.355Z,26.50
2022-12-20T23:04:41.880Z,25.30
2022-12-20T23:07:43.321Z,26.60
2022-12-20T23:11:03.421Z,27.90
2022-12-20T23:14:24.153Z,31.30
2022-12-20T23:17:25.557Z,28.60
2022-12-20T23:20:45.986Z,28.60
2022-12-20T23:23:52.465Z,29.00
2022-12-20T23:26:57.328Z,28.90
2022-12-20T23:29:58.831Z,29.40
2022-12-20T23:33:00.372Z,27.50
2022-12-20T23:36:03.332Z,29.30
2022-12-20T23:39:05.301Z,27.70
2022-12-20T23:42:07.083Z,28.10
2022-12-20T23:45:08.923Z,32.40
2022-12-20T23:48:10.399Z,29.10
2022-12-20T23:51:12.028Z,28.00
2022-12-20T23:54:13.535Z,29.00
2022-12-20T23:57:15.025Z,27.10
